Time;durP1;ratioP1;P1;durP2;ratioP2;P2;SDS_P1;SDS_P2;PMS_P1;PMS_P2;Temp;Humidity;BMP_temperature;BMP_pressure;BME280_temperature;BME280_humidity;BME280_pressure;Samples;Min_cycle;Max_cycle;Signal;HPM_P1;HPM_P2
2022/01/22 00:01:12;;;;;;;13.17;9.07;;;6.70;99.90;;;;;;5077367;28;20181;-69
2022/01/22 00:03:38;;;;;;;15.27;8.47;;;6.60;99.90;;;;;;5054160;28;20251;-66
2022/01/22 00:06:04;;;;;;;13.60;9.00;;;6.60;99.90;;;;;;5066613;28;20185;-65
2022/01/22 00:08:31;;;;;;;14.07;9.43;;;6.70;99.90;;;;;;5060674;28;20188;-69
2022/01/22 00:10:57;;;;;;;14.73;10.27;;;6.70;99.90;;;;;;5081392;28;20238;-67
2022/01/22 00:15:55;;;;;;;14.87;9.13;;;6.70;99.90;;;;;;5078848;28;20280;-64
2022/01/22 00:18:21;;;;;;;11.47;9.20;;;6.70;99.90;;;;;;5077526;28;20208;-63
2022/01/22 00:20:47;;;;;;;18.13;9.50;;;6.60;99.90;;;;;;5079609;28;20209;-62
2022/01/22 00:23:15;;;;;;;15.03;9.67;;;6.70;99.90;;;;;;5074353;28;20184;-62
2022/01/22 00:25:41;;;;;;;13.63;10.53;;;6.70;99.90;;;;;;5035654;28;20189;-63
2022/01/22 00:28:07;;;;;;;14.93;8.60;;;6.70;99.90;;;;;;5081554;28;20252;-63
2022/01/22 00:30:33;;;;;;;16.93;9.63;;;6.80;99.90;;;;;;5073811;28;20181;-63
2022/01/22 00:32:58;;;;;;;14.90;10.43;;;6.80;99.90;;;;;;5064489;28;20724;-61
2022/01/22 00:35:25;;;;;;;16.77;9.67;;;6.90;99.90;;;;;;5063246;28;20196;-62
2022/01/22 00:37:52;;;;;;;11.10;9.50;;;6.80;99.90;;;;;;5082866;28;20184;-62
2022/01/22 00:40:19;;;;;;;15.27;10.07;;;6.80;99.90;;;;;;5074637;28;20193;-62
2022/01/22 00:42:46;;;;;;;14.57;9.53;;;6.80;99.90;;;;;;5095118;28;20634;-62
2022/01/22 00:45:13;;;;;;;12.23;8.90;;;6.70;99.90;;;;;;5077736;28;20174;-62
2022/01/22 00:47:39;;;;;;;15.60;9.47;;;6.70;99.90;;;;;;5079188;28;20630;-62
2022/01/22 00:50:08;;;;;;;17.93;9.37;;;6.60;99.90;;;;;;5075710;28;20172;-62
2022/01/22 00:52:34;;;;;;;18.10;8.70;;;6.50;99.90;;;;;;5094094;28;20190;-62
2022/01/22 00:55:00;;;;;;;20.83;10.67;;;6.60;99.90;;;;;;5094689;28;20188;-62
2022/01/22 00:57:25;;;;;;;23.43;10.87;;;6.70;99.90;;;;;;5086842;28;20256;-62
2022/01/22 00:59:51;;;;;;;14.53;9.73;;;6.70;99.90;;;;;;5082287;28;20279;-62
2022/01/22 01:02:17;;;;;;;15.27;9.67;;;6.70;99.90;;;;;;5084109;28;20231;-62
2022/01/22 01:04:42;;;;;;;14.00;9.67;;;6.70;99.90;;;;;;5086684;28;20242;-63
2022/01/22 01:07:08;;;;;;;14.30;10.07;;;6.80;99.90;;;;;;5092878;28;20185;-62
2022/01/22 01:09:37;;;;;;;13.13;9.20;;;6.80;99.90;;;;;;5092915;28;20193;-62
2022/01/22 01:12:06;;;;;;;17.07;10.60;;;6.70;99.90;;;;;;5073988;28;20211;-62
2022/01/22 01:14:52;;;;;;;13.57;10.07;;;6.70;99.90;;;;;;5074356;28;20217;-62
2022/01/22 01:17:58;;;;;;;19.23;10.30;;;6.60;99.90;;;;;;5081557;28;20181;-62
2022/01/22 01:34:18;;;;;;;15.87;11.00;;;6.50;99.90;;;;;;5083895;28;20603;-62
2022/01/22 01:36:45;;;;;;;14.93;10.87;;;6.60;99.90;;;;;;5092664;28;20242;-62
2022/01/22 01:39:15;;;;;;;12.60;10.53;;;6.70;99.90;;;;;;5093091;28;20276;-62
2022/01/22 01:41:50;;;;;;;17.10;11.37;;;6.70;99.90;;;;;;5078592;28;20185;-64
2022/01/22 01:44:17;;;;;;;15.90;11.33;;;6.70;99.90;;;;;;5073880;28;20633;-62
2022/01/22 01:46:56;;;;;;;15.40;11.73;;;6.60;99.90;;;;;;5093034;28;20272;-62
2022/01/22 01:49:21;;;;;;;24.37;12.90;;;6.70;99.90;;;;;;5073431;28;20193;-62
2022/01/22 01:51:47;;;;;;;14.37;9.90;;;6.70;99.90;;;;;;5079400;28;20184;-62
2022/01/22 01:59:33;;;;;;;15.37;11.63;;;6.60;99.90;;;;;;5084756;28;20203;-62
2022/01/22 02:01:58;;;;;;;19.63;10.97;;;6.60;99.90;;;;;;5042704;28;20276;-62
2022/01/22 02:04:24;;;;;;;16.83;10.80;;;6.60;99.90;;;;;;5086340;28;20177;-62
2022/01/22 02:06:50;;;;;;;22.77;11.90;;;6.70;99.90;;;;;;5073735;28;20189;-62
2022/01/22 02:09:16;;;;;;;15.87;12.33;;;6.60;99.90;;;;;;5086893;28;20180;-63
2022/01/22 02:11:44;;;;;;;21.27;11.87;;;6.70;99.90;;;;;;5080801;28;20291;-62
2022/01/22 02:24:55;;;;;;;19.33;11.50;;;6.80;99.90;;;;;;5080436;28;20200;-62
2022/01/22 02:27:21;;;;;;;21.90;12.53;;;6.70;99.90;;;;;;5081235;28;20256;-62
2022/01/22 02:29:47;;;;;;;20.83;11.53;;;6.80;99.90;;;;;;5073043;28;20259;-62
2022/01/22 02:37:44;;;;;;;18.00;12.10;;;6.70;99.90;;;;;;5085713;28;20664;-62
2022/01/22 02:42:55;;;;;;;17.50;12.07;;;6.80;99.90;;;;;;5073034;28;20637;-62
2022/01/22 02:45:23;;;;;;;18.83;12.30;;;6.70;99.90;;;;;;5074936;28;20196;-62
2022/01/22 02:47:50;;;;;;;20.83;13.67;;;6.70;99.90;;;;;;5091511;28;20299;-66
2022/01/22 02:50:16;;;;;;;15.30;11.03;;;6.70;99.90;;;;;;5093127;28;20600;-63
2022/01/22 02:52:42;;;;;;;17.13;12.23;;;6.80;99.90;;;;;;5075187;28;20258;-62
2022/01/22 02:55:11;;;;;;;20.27;13.33;;;6.80;99.90;;;;;;5072722;28;20194;-62
2022/01/22 02:57:37;;;;;;;18.90;12.30;;;6.80;99.90;;;;;;5074471;28;20176;-62
2022/01/22 03:00:06;;;;;;;22.33;12.40;;;6.80;99.90;;;;;;5059587;28;20194;-62
2022/01/22 03:02:32;;;;;;;21.97;12.37;;;6.70;99.90;;;;;;5064909;28;20195;-63
2022/01/22 03:04:57;;;;;;;18.03;11.83;;;6.80;99.90;;;;;;5045747;28;20182;-65
2022/01/22 03:07:24;;;;;;;20.37;12.77;;;6.80;99.90;;;;;;5039089;28;20200;-62
2022/01/22 03:09:51;;;;;;;24.63;14.60;;;6.90;99.90;;;;;;5090761;28;20184;-62
2022/01/22 03:18:03;;;;;;;22.67;13.53;;;6.80;99.90;;;;;;5076395;28;20204;-62
2022/01/22 03:31:33;;;;;;;26.93;14.03;;;6.70;99.90;;;;;;5046450;28;20204;-62
2022/01/22 03:33:59;;;;;;;19.33;13.00;;;6.80;99.90;;;;;;5077425;28;20212;-62
2022/01/22 03:36:29;;;;;;;18.47;12.67;;;6.80;99.90;;;;;;5078538;28;20192;-63
2022/01/22 03:38:55;;;;;;;18.40;13.70;;;6.80;99.90;;;;;;5082306;28;20679;-63
2022/01/22 03:41:23;;;;;;;24.67;14.33;;;6.80;99.90;;;;;;5094478;28;20181;-61
2022/01/22 03:43:50;;;;;;;16.53;11.93;;;6.90;99.90;;;;;;5095092;28;20184;-62
2022/01/22 03:46:16;;;;;;;33.27;14.37;;;6.80;99.90;;;;;;5076058;28;20173;-62
2022/01/22 03:48:42;;;;;;;23.97;13.33;;;6.80;99.90;;;;;;5083855;28;20193;-62
2022/01/22 03:51:07;;;;;;;22.27;14.00;;;6.80;99.90;;;;;;5077943;28;20749;-62
2022/01/22 03:53:33;;;;;;;21.17;14.00;;;6.80;99.90;;;;;;5083345;28;20213;-62
2022/01/22 03:58:25;;;;;;;22.40;14.00;;;6.80;99.90;;;;;;5059315;28;20197;-62
2022/01/22 04:01:01;;;;;;;22.33;14.10;;;6.80;99.90;;;;;;5075570;28;20185;-62
2022/01/22 04:03:35;;;;;;;19.87;14.60;;;6.80;99.90;;;;;;5061378;28;20212;-62
2022/01/22 04:08:29;;;;;;;21.07;14.57;;;6.80;99.90;;;;;;5076303;28;20226;-62
2022/01/22 04:10:55;;;;;;;27.63;16.20;;;6.80;99.90;;;;;;5075586;28;20216;-63
2022/01/22 04:13:28;;;;;;;19.93;13.37;;;6.80;99.90;;;;;;5075682;28;20193;-62
2022/01/22 04:15:53;;;;;;;25.47;15.13;;;6.70;99.90;;;;;;5078558;28;20202;-62
2022/01/22 04:29:00;;;;;;;23.57;15.20;;;6.90;99.90;;;;;;5087143;28;20190;-62
2022/01/22 04:31:26;;;;;;;23.83;14.10;;;6.90;99.90;;;;;;5065843;28;20230;-62
2022/01/22 04:33:52;;;;;;;27.00;15.43;;;7.00;99.90;;;;;;5076102;28;20722;-62
2022/01/22 04:36:17;;;;;;;25.40;13.63;;;7.00;99.90;;;;;;5075744;28;20570;-62
2022/01/22 04:38:43;;;;;;;27.53;15.17;;;7.00;99.90;;;;;;5094195;28;20189;-62
2022/01/22 04:41:09;;;;;;;27.53;15.93;;;7.00;99.90;;;;;;5076420;28;20218;-62
2022/01/22 04:43:37;;;;;;;29.70;16.93;;;7.00;99.90;;;;;;5063134;28;20193;-62
2022/01/22 04:56:36;;;;;;;27.23;16.70;;;7.00;99.90;;;;;;5082853;28;20199;-62
2022/01/22 04:59:02;;;;;;;31.57;16.33;;;6.90;99.90;;;;;;5057984;28;20185;-63
2022/01/22 05:01:29;;;;;;;30.67;15.17;;;6.90;99.90;;;;;;5057012;28;20209;-62
2022/01/22 05:03:54;;;;;;;27.93;15.00;;;7.00;99.90;;;;;;5075490;28;20209;-62
2022/01/22 05:06:20;;;;;;;27.37;15.37;;;7.00;99.90;;;;;;5089644;28;20593;-62
2022/01/22 05:08:46;;;;;;;27.20;15.87;;;6.90;99.90;;;;;;5061927;28;20187;-65
2022/01/22 05:11:12;;;;;;;26.83;14.83;;;7.00;99.90;;;;;;5093767;28;20710;-62
2022/01/22 05:13:37;;;;;;;28.87;15.53;;;7.00;99.90;;;;;;5093312;28;20219;-63
2022/01/22 05:16:03;;;;;;;28.13;15.53;;;7.00;99.90;;;;;;5072197;28;20287;-62
2022/01/22 05:18:29;;;;;;;30.10;15.87;;;7.10;99.90;;;;;;5080921;28;20177;-62
2022/01/22 05:21:06;;;;;;;28.10;16.47;;;7.10;99.90;;;;;;5093512;28;20177;-62
2022/01/22 05:23:34;;;;;;;25.60;16.20;;;7.10;99.90;;;;;;5093312;28;20200;-62
2022/01/22 05:26:03;;;;;;;30.67;17.37;;;7.00;99.90;;;;;;5089709;28;20184;-62
2022/01/22 05:39:29;;;;;;;34.17;17.30;;;7.10;99.90;;;;;;5079558;28;20187;-62
2022/01/22 05:41:56;;;;;;;27.87;16.67;;;7.10;99.90;;;;;;5092700;28;20179;-63
2022/01/22 05:44:22;;;;;;;30.50;17.23;;;7.00;99.90;;;;;;5075140;28;20614;-63
2022/01/22 05:46:50;;;;;;;30.30;18.37;;;6.90;99.90;;;;;;5074716;28;20228;-62
2022/01/22 05:49:16;;;;;;;26.20;15.57;;;7.00;99.90;;;;;;5092933;28;20614;-62
2022/01/22 05:51:45;;;;;;;29.43;17.20;;;7.10;99.90;;;;;;5092633;28;20216;-62
2022/01/22 05:59:37;;;;;;;37.37;18.40;;;7.00;99.90;;;;;;5087979;28;20223;-63
2022/01/22 06:02:15;;;;;;;36.13;17.57;;;7.10;99.90;;;;;;5079223;28;20185;-62
2022/01/22 06:04:42;;;;;;;36.13;16.93;;;7.20;99.90;;;;;;5079425;28;20672;-62
2022/01/22 06:07:09;;;;;;;35.07;17.63;;;7.10;99.90;;;;;;5082905;28;20649;-63
2022/01/22 06:09:38;;;;;;;28.60;17.60;;;7.10;99.90;;;;;;5055337;28;20204;-62
2022/01/22 06:14:34;;;;;;;29.10;17.40;;;7.30;99.90;;;;;;5061824;28;20303;-63
2022/01/22 06:16:59;;;;;;;38.10;18.10;;;7.20;99.90;;;;;;5074154;28;20187;-62
2022/01/22 06:19:26;;;;;;;33.90;18.73;;;7.20;99.90;;;;;;5092128;28;20180;-62
2022/01/22 06:21:52;;;;;;;38.60;18.13;;;7.10;99.90;;;;;;5092271;28;20188;-62
2022/01/22 06:24:21;;;;;;;36.50;19.07;;;7.20;99.90;;;;;;5085073;28;20182;-66
2022/01/22 06:26:47;;;;;;;31.10;18.17;;;7.20;99.90;;;;;;5028738;28;20622;-62
2022/01/22 06:29:12;;;;;;;35.23;19.20;;;7.20;99.90;;;;;;5080556;28;20214;-63
2022/01/22 06:31:39;;;;;;;28.20;16.20;;;7.10;99.90;;;;;;5092577;28;20184;-62
2022/01/22 06:34:05;;;;;;;33.27;19.03;;;7.20;99.90;;;;;;5082331;28;20267;-62
2022/01/22 06:36:31;;;;;;;41.83;18.93;;;7.20;99.90;;;;;;5084203;28;20189;-62
2022/01/22 06:39:20;;;;;;;37.27;19.67;;;7.20;99.90;;;;;;5092232;28;20181;-62
2022/01/22 06:41:44;;;;;;;36.43;18.93;;;7.20;99.90;;;;;;5073599;28;20623;-62
2022/01/22 06:44:15;;;;;;;35.27;17.77;;;7.30;99.90;;;;;;5069563;28;20644;-62
2022/01/22 06:46:44;;;;;;;35.17;18.57;;;7.30;99.90;;;;;;5092182;28;20194;-62
2022/01/22 06:49:10;;;;;;;32.73;17.90;;;7.30;99.90;;;;;;5073102;28;20634;-63
2022/01/22 06:51:36;;;;;;;31.83;17.60;;;7.20;99.90;;;;;;5064752;28;20232;-62
2022/01/22 06:54:04;;;;;;;33.93;19.00;;;7.30;99.90;;;;;;5088415;28;20208;-62
2022/01/22 06:56:30;;;;;;;38.17;20.10;;;7.30;99.90;;;;;;5075108;28;20199;-63
2022/01/22 06:58:58;;;;;;;37.00;21.53;;;7.40;99.90;;;;;;5092396;28;20193;-63
2022/01/22 07:01:25;;;;;;;35.00;19.63;;;7.40;99.90;;;;;;5072744;28;20238;-62
2022/01/22 07:03:51;;;;;;;42.23;19.70;;;7.40;99.90;;;;;;5081071;28;20212;-63
2022/01/22 07:06:16;;;;;;;33.70;19.10;;;7.40;99.90;;;;;;5089601;28;20188;-62
2022/01/22 07:08:42;;;;;;;34.07;20.67;;;7.30;99.90;;;;;;5059936;28;20189;-62
2022/01/22 07:11:08;;;;;;;41.20;19.87;;;7.30;99.90;;;;;;5070555;28;20287;-62
2022/01/22 07:13:34;;;;;;;30.93;18.50;;;7.30;99.90;;;;;;5095610;28;20212;-62
2022/01/22 07:16:00;;;;;;;39.37;18.67;;;7.30;99.90;;;;;;5095559;28;20184;-63
2022/01/22 07:18:28;;;;;;;34.60;17.93;;;7.30;99.90;;;;;;5077600;28;20663;-64
2022/01/22 07:20:54;;;;;;;34.93;19.70;;;7.40;99.90;;;;;;5077277;28;20197;-63
2022/01/22 07:25:45;;;;;;;39.13;19.27;;;7.40;99.90;;;;;;5078239;28;20590;-62
2022/01/22 07:28:12;;;;;;;40.90;19.53;;;7.30;99.90;;;;;;5092315;28;20265;-63
2022/01/22 07:30:39;;;;;;;32.87;18.63;;;7.30;99.90;;;;;;5090886;28;20208;-63
2022/01/22 07:33:05;;;;;;;36.67;18.63;;;7.30;99.90;;;;;;5090360;28;20657;-65
2022/01/22 07:35:34;;;;;;;41.83;18.97;;;7.30;99.90;;;;;;5082606;28;20192;-64
2022/01/22 07:38:02;;;;;;;34.07;19.20;;;7.50;99.90;;;;;;5086505;28;20252;-66
2022/01/22 07:40:28;;;;;;;37.17;19.80;;;7.60;99.90;;;;;;5095161;28;20199;-65
2022/01/22 07:42:54;;;;;;;36.23;19.40;;;7.60;99.90;;;;;;5092266;28;20178;-65
2022/01/22 07:45:20;;;;;;;33.10;18.77;;;7.50;99.90;;;;;;5089179;28;20188;-65
2022/01/22 07:47:46;;;;;;;36.83;18.77;;;7.50;99.90;;;;;;5077030;28;20185;-65
2022/01/22 07:50:11;;;;;;;33.77;17.23;;;7.50;99.90;;;;;;5064805;28;20548;-65
2022/01/22 07:52:37;;;;;;;36.37;19.03;;;7.50;99.90;;;;;;5072091;28;20181;-66
2022/01/22 07:55:04;;;;;;;37.13;18.23;;;7.50;99.90;;;;;;5057688;28;20622;-64
2022/01/22 07:57:29;;;;;;;35.43;19.37;;;7.60;99.90;;;;;;5059290;28;20260;-64
2022/01/22 07:59:58;;;;;;;33.17;19.00;;;7.50;99.90;;;;;;5063540;28;20668;-67
2022/01/22 08:02:24;;;;;;;29.17;17.17;;;7.60;99.90;;;;;;5086447;28;20201;-66
2022/01/22 08:04:50;;;;;;;38.27;18.63;;;7.70;99.90;;;;;;5063653;28;20202;-66
2022/01/22 08:07:16;;;;;;;37.47;18.47;;;7.70;99.90;;;;;;5089872;28;20201;-66
2022/01/22 08:09:43;;;;;;;33.43;18.73;;;7.70;99.90;;;;;;5084854;28;20709;-64
2022/01/22 08:12:09;;;;;;;31.50;16.97;;;7.70;99.90;;;;;;5072272;28;20218;-63
2022/01/22 08:14:35;;;;;;;41.27;19.43;;;7.60;99.90;;;;;;5060285;28;20629;-64
2022/01/22 08:17:01;;;;;;;37.23;18.63;;;7.60;99.90;;;;;;5044950;28;20701;-64
2022/01/22 08:19:27;;;;;;;30.37;17.53;;;7.70;99.90;;;;;;5077077;28;20185;-63
2022/01/22 08:21:53;;;;;;;37.93;20.50;;;7.60;99.90;;;;;;5075456;28;20643;-63
2022/01/22 08:24:22;;;;;;;42.53;18.03;;;7.80;99.90;;;;;;5057399;28;20678;-63
2022/01/22 08:27:03;;;;;;;35.00;17.87;;;7.80;99.90;;;;;;5067442;28;20211;-67
2022/01/22 08:29:28;;;;;;;37.47;19.37;;;7.80;99.90;;;;;;5074056;28;20657;-66
2022/01/22 08:37:22;;;;;;;38.20;20.63;;;7.90;99.90;;;;;;5094410;28;20242;-66
2022/01/22 08:39:48;;;;;;;34.07;19.90;;;7.90;99.90;;;;;;5093457;28;20610;-66
2022/01/22 08:42:14;;;;;;;37.63;19.60;;;8.00;99.90;;;;;;5078011;28;20257;-65
2022/01/22 08:44:40;;;;;;;42.67;19.03;;;8.00;99.90;;;;;;5091513;28;20828;-65
2022/01/22 08:47:06;;;;;;;33.83;18.30;;;7.80;99.90;;;;;;5074971;28;20177;-66
2022/01/22 08:49:32;;;;;;;29.97;17.27;;;7.90;99.90;;;;;;5076573;28;20276;-65
2022/01/22 08:51:58;;;;;;;38.73;18.23;;;8.00;99.90;;;;;;5060234;28;20181;-65
2022/01/22 08:54:24;;;;;;;32.47;18.37;;;8.00;99.90;;;;;;5077694;28;20200;-66
2022/01/22 08:56:50;;;;;;;37.10;18.87;;;8.10;99.90;;;;;;5050717;28;20188;-65
2022/01/22 08:59:15;;;;;;;40.37;18.83;;;8.00;99.90;;;;;;5085036;28;20538;-66
2022/01/22 09:01:45;;;;;;;39.87;19.50;;;8.00;99.90;;;;;;5064710;28;20181;-65
2022/01/22 09:04:12;;;;;;;31.60;17.33;;;7.90;99.90;;;;;;5067501;28;20538;-66
2022/01/22 09:06:37;;;;;;;37.00;17.53;;;8.00;99.90;;;;;;5073661;28;20233;-65
2022/01/22 09:09:12;;;;;;;35.37;17.93;;;8.10;99.90;;;;;;5074761;28;20181;-65
2022/01/22 09:11:40;;;;;;;31.13;17.37;;;8.10;99.90;;;;;;5082248;28;20199;-65
2022/01/22 09:14:09;;;;;;;28.10;17.13;;;8.20;99.90;;;;;;5093923;28;20200;-65
2022/01/22 09:16:35;;;;;;;33.17;17.97;;;8.30;99.90;;;;;;5075516;28;20181;-65
2022/01/22 09:19:06;;;;;;;32.13;17.60;;;8.30;99.90;;;;;;5075882;28;20633;-64
2022/01/22 09:21:37;;;;;;;32.23;16.20;;;8.30;99.90;;;;;;5067678;28;20283;-65
2022/01/22 09:24:04;;;;;;;29.87;16.93;;;8.30;99.90;;;;;;5077715;28;20187;-64
2022/01/22 09:26:31;;;;;;;37.13;17.83;;;8.20;99.90;;;;;;5075211;28;20251;-70
2022/01/22 09:28:58;;;;;;;30.47;16.03;;;8.20;99.90;;;;;;5072945;28;20571;-68
2022/01/22 09:31:25;;;;;;;28.60;17.63;;;8.30;99.90;;;;;;5080910;28;20172;-66
2022/01/22 09:33:56;;;;;;;27.37;16.67;;;8.40;99.90;;;;;;5093251;28;20204;-65
2022/01/22 09:36:22;;;;;;;35.53;20.30;;;8.40;99.90;;;;;;5084586;28;20204;-66
2022/01/22 09:38:48;;;;;;;32.60;16.23;;;8.50;99.90;;;;;;5092644;28;20220;-66
2022/01/22 09:41:15;;;;;;;34.20;16.97;;;8.50;99.90;;;;;;5074752;28;20208;-66
2022/01/22 09:43:41;;;;;;;30.23;16.57;;;8.50;99.90;;;;;;5082371;28;20649;-66
2022/01/22 09:46:08;;;;;;;30.47;16.90;;;8.50;99.90;;;;;;5045523;28;20267;-67
2022/01/22 09:48:34;;;;;;;28.80;15.80;;;8.70;99.90;;;;;;5083119;28;20185;-67
2022/01/22 09:51:00;;;;;;;33.87;18.70;;;8.50;99.90;;;;;;5080048;28;20181;-67
2022/01/22 09:53:26;;;;;;;30.60;17.07;;;8.50;99.90;;;;;;5062783;28;20753;-67
2022/01/22 09:55:52;;;;;;;31.17;15.93;;;8.50;99.90;;;;;;5066431;28;20588;-67
2022/01/22 09:58:17;;;;;;;37.73;19.67;;;8.60;99.90;;;;;;5063626;28;20204;-67
2022/01/22 10:00:43;;;;;;;30.30;16.87;;;8.70;99.90;;;;;;5065033;28;20196;-66
2022/01/22 10:03:17;;;;;;;34.97;18.83;;;8.60;99.90;;;;;;5078703;28;20229;-68
2022/01/22 10:05:43;;;;;;;32.77;18.23;;;8.60;99.90;;;;;;5074826;28;20187;-68
2022/01/22 10:08:28;;;;;;;32.30;16.90;;;8.60;99.90;;;;;;5084622;28;20267;-67
2022/01/22 10:10:56;;;;;;;33.47;17.63;;;8.80;99.90;;;;;;5074413;28;20242;-66
2022/01/22 10:13:40;;;;;;;28.07;15.13;;;8.70;99.90;;;;;;5077950;28;20209;-66
2022/01/22 10:16:26;;;;;;;32.90;16.93;;;8.70;99.90;;;;;;5090567;28;20237;-67
2022/01/22 10:19:17;;;;;;;33.37;20.13;;;8.80;99.90;;;;;;5091967;28;20188;-64
2022/01/22 10:21:56;;;;;;;32.13;16.83;;;8.80;99.90;;;;;;5085299;28;20177;-65
2022/01/22 10:24:28;;;;;;;35.93;17.73;;;8.70;99.90;;;;;;5075775;28;20176;-66
2022/01/22 10:29:57;;;;;;;33.40;16.33;;;8.80;99.90;;;;;;5079383;28;20592;-65
2022/01/22 10:32:46;;;;;;;39.77;18.77;;;8.90;99.90;;;;;;5073334;28;20243;-65
2022/01/22 10:35:23;;;;;;;35.57;17.57;;;8.90;99.90;;;;;;5079491;28;20206;-65
2022/01/22 10:38:01;;;;;;;33.07;17.33;;;9.00;99.90;;;;;;5085130;28;20172;-64
2022/01/22 10:40:29;;;;;;;30.80;16.70;;;9.00;99.90;;;;;;5086571;28;20264;-63
2022/01/22 10:43:16;;;;;;;25.67;15.47;;;9.10;99.90;;;;;;5087830;28;20183;-65
2022/01/22 10:46:10;;;;;;;36.87;17.83;;;9.30;99.90;;;;;;5093996;28;20267;-66
2022/01/22 10:48:38;;;;;;;30.53;17.03;;;9.10;99.90;;;;;;5079575;28;20185;-64
2022/01/22 10:51:10;;;;;;;28.13;15.33;;;9.10;99.90;;;;;;5079586;28;20181;-64
2022/01/22 10:53:44;;;;;;;28.40;17.40;;;9.10;99.90;;;;;;5094521;28;20577;-64
2022/01/22 10:56:13;;;;;;;29.63;16.10;;;9.10;99.90;;;;;;5098617;28;20187;-65
2022/01/22 10:59:01;;;;;;;36.57;20.03;;;9.20;99.90;;;;;;5076793;28;20657;-65
2022/01/22 11:01:43;;;;;;;36.27;19.80;;;9.10;99.90;;;;;;5079764;28;20181;-65
2022/01/22 11:04:16;;;;;;;32.73;17.37;;;9.20;99.90;;;;;;5080739;28;20188;-65
2022/01/22 11:07:05;;;;;;;41.37;19.57;;;9.30;99.90;;;;;;5081418;28;20260;-69
2022/01/22 11:09:32;;;;;;;31.33;16.47;;;9.20;99.90;;;;;;5084437;28;20506;-65
2022/01/22 11:12:00;;;;;;;31.73;17.87;;;9.30;99.90;;;;;;5097936;28;20192;-65
2022/01/22 11:14:28;;;;;;;33.30;19.10;;;9.20;99.90;;;;;;5080774;28;20200;-65
2022/01/22 11:16:54;;;;;;;31.70;17.07;;;9.20;99.90;;;;;;5080317;28;20181;-65
2022/01/22 11:19:23;;;;;;;36.73;16.43;;;9.30;99.90;;;;;;5063829;28;20191;-65
2022/01/22 11:21:52;;;;;;;33.93;16.83;;;9.30;99.90;;;;;;5080350;28;20233;-65
2022/01/22 11:24:23;;;;;;;33.83;16.07;;;9.30;99.90;;;;;;5082254;28;20189;-65
2022/01/22 11:27:01;;;;;;;31.53;16.83;;;9.20;99.90;;;;;;5092829;28;20618;-65
2022/01/22 11:30:05;;;;;;;26.77;14.73;;;9.10;99.90;;;;;;5098834;28;20172;-65
2022/01/22 11:32:42;;;;;;;36.40;17.83;;;9.10;99.90;;;;;;5040722;28;20223;-65
2022/01/22 11:35:09;;;;;;;28.87;15.63;;;9.30;99.90;;;;;;5098294;28;20192;-65
2022/01/22 11:37:39;;;;;;;28.00;13.97;;;9.20;99.90;;;;;;5079986;28;20227;-65
2022/01/22 11:40:22;;;;;;;32.73;15.87;;;9.20;99.90;;;;;;5097174;28;20222;-65
2022/01/22 11:43:09;;;;;;;29.00;14.87;;;9.20;99.90;;;;;;5098481;28;20220;-65
2022/01/22 11:45:46;;;;;;;28.00;15.43;;;9.10;99.90;;;;;;5098534;28;20209;-64
2022/01/22 11:48:18;;;;;;;30.87;16.33;;;9.00;99.90;;;;;;5079602;28;20181;-64
2022/01/22 11:50:50;;;;;;;31.73;16.57;;;9.00;99.90;;;;;;5080804;28;20178;-65
2022/01/22 11:53:37;;;;;;;40.53;17.00;;;9.00;99.90;;;;;;5091310;28;20779;-65
2022/01/22 11:56:12;;;;;;;35.23;16.17;;;8.90;99.90;;;;;;5076315;28;20216;-65
2022/01/22 11:58:56;;;;;;;34.73;18.47;;;8.90;99.90;;;;;;5083388;28;20192;-65
2022/01/22 12:04:16;;;;;;;32.67;16.73;;;8.90;99.90;;;;;;5085422;28;20197;-64
2022/01/22 12:07:00;;;;;;;27.83;15.53;;;9.00;99.90;;;;;;5095133;28;20192;-64
2022/01/22 12:09:30;;;;;;;34.30;18.30;;;8.90;99.90;;;;;;5075753;28;20303;-64
2022/01/22 12:14:49;;;;;;;38.80;18.10;;;9.00;99.90;;;;;;5079430;28;20304;-65
2022/01/22 12:17:29;;;;;;;30.60;16.37;;;9.00;99.90;;;;;;5085442;28;20680;-65
2022/01/22 12:22:39;;;;;;;30.73;16.47;;;8.90;99.90;;;;;;5081477;28;20192;-65
2022/01/22 12:25:14;;;;;;;31.43;18.30;;;9.00;99.90;;;;;;5094214;28;20582;-65
2022/01/22 12:27:47;;;;;;;36.87;19.10;;;9.00;99.90;;;;;;5075836;28;20669;-65
2022/01/22 12:30:14;;;;;;;32.33;17.40;;;8.90;99.90;;;;;;5081266;28;20586;-64
2022/01/22 12:32:48;;;;;;;44.57;19.03;;;9.00;99.90;;;;;;5094232;28;20189;-64
2022/01/22 12:35:19;;;;;;;30.67;16.63;;;9.00;99.90;;;;;;5094231;28;20239;-64
2022/01/22 12:37:50;;;;;;;31.43;18.10;;;9.30;99.90;;;;;;5076737;28;20203;-64
2022/01/22 12:40:30;;;;;;;30.97;17.43;;;9.20;99.90;;;;;;5075305;28;20208;-66
2022/01/22 12:43:07;;;;;;;31.83;16.87;;;9.10;99.90;;;;;;5074950;28;20170;-65
2022/01/22 12:45:35;;;;;;;31.60;17.90;;;9.30;99.90;;;;;;5059019;28;20191;-65
2022/01/22 12:48:02;;;;;;;30.13;17.00;;;9.30;99.90;;;;;;5075213;28;20177;-65
2022/01/22 12:50:30;;;;;;;32.77;17.40;;;9.30;99.90;;;;;;5051365;28;20178;-65
2022/01/22 12:53:02;;;;;;;32.53;17.33;;;9.30;99.90;;;;;;5068812;28;20177;-65
2022/01/22 12:55:49;;;;;;;36.17;18.57;;;9.40;99.90;;;;;;5093906;28;20188;-65
2022/01/22 12:58:21;;;;;;;36.27;18.90;;;9.40;99.90;;;;;;5093500;28;20283;-69
2022/01/22 13:00:48;;;;;;;33.10;16.53;;;9.40;99.90;;;;;;5081036;28;20188;-65
2022/01/22 13:03:14;;;;;;;28.13;15.40;;;9.30;99.90;;;;;;5090086;28;20192;-65
2022/01/22 13:05:45;;;;;;;33.47;17.73;;;9.30;99.90;;;;;;5058556;28;20180;-65
2022/01/22 13:08:11;;;;;;;31.90;17.33;;;9.20;99.90;;;;;;5094248;28;20207;-65
2022/01/22 13:10:44;;;;;;;33.77;16.70;;;9.10;99.90;;;;;;5093854;28;20689;-65
2022/01/22 13:13:14;;;;;;;31.97;16.97;;;9.10;99.90;;;;;;5093265;28;20681;-65
2022/01/22 13:15:40;;;;;;;34.77;16.97;;;9.10;99.90;;;;;;5082653;28;20185;-65
2022/01/22 13:18:06;;;;;;;40.17;18.80;;;9.00;99.90;;;;;;5074069;28;20192;-64
2022/01/22 13:20:34;;;;;;;28.03;16.83;;;8.90;99.90;;;;;;5085546;28;20548;-65
2022/01/22 13:23:13;;;;;;;33.30;18.40;;;9.00;99.90;;;;;;5074283;28;20224;-65
2022/01/22 13:25:38;;;;;;;31.97;16.87;;;9.10;99.90;;;;;;5062086;28;20699;-64
2022/01/22 13:28:13;;;;;;;31.20;17.60;;;9.10;99.90;;;;;;5070044;28;20181;-64
2022/01/22 13:30:53;;;;;;;33.73;17.43;;;9.00;99.90;;;;;;5080651;28;20269;-65
2022/01/22 13:33:31;;;;;;;31.23;16.97;;;9.10;99.90;;;;;;5075356;28;20204;-64
2022/01/22 13:36:13;;;;;;;28.03;16.53;;;9.20;99.90;;;;;;5077148;28;20614;-65
2022/01/22 13:49:39;;;;;;;29.27;17.07;;;9.10;99.90;;;;;;5092901;28;20192;-64
2022/01/22 13:52:10;;;;;;;35.33;19.70;;;8.90;99.90;;;;;;5087648;28;20195;-65
2022/01/22 13:54:41;;;;;;;32.63;17.87;;;8.80;99.90;;;;;;5073593;28;20211;-64
2022/01/22 13:57:10;;;;;;;28.73;16.07;;;8.90;99.90;;;;;;5068736;28;20193;-65
2022/01/22 13:59:41;;;;;;;35.63;18.07;;;8.90;99.90;;;;;;5074236;28;20187;-65
2022/01/22 14:04:50;;;;;;;35.63;18.23;;;8.70;99.90;;;;;;5093324;28;20191;-65
2022/01/22 14:07:38;;;;;;;45.10;21.27;;;8.80;99.90;;;;;;5090105;28;20184;-65
2022/01/22 14:10:14;;;;;;;34.93;18.93;;;8.90;99.90;;;;;;5063087;28;20192;-65
2022/01/22 14:12:50;;;;;;;33.90;20.93;;;8.60;99.90;;;;;;5086164;28;20195;-64
2022/01/22 14:15:35;;;;;;;34.53;18.17;;;8.70;99.90;;;;;;5070141;28;20208;-64
2022/01/22 14:18:20;;;;;;;36.63;19.70;;;8.80;99.90;;;;;;5088916;28;20172;-66
2022/01/22 14:20:45;;;;;;;38.63;19.30;;;8.80;99.90;;;;;;5073542;28;20184;-65
2022/01/22 14:23:23;;;;;;;36.60;19.13;;;8.80;99.90;;;;;;5080189;28;20181;-64
2022/01/22 14:25:57;;;;;;;36.40;19.77;;;8.70;99.90;;;;;;5092517;28;20180;-64
2022/01/22 14:28:44;;;;;;;33.93;19.27;;;8.80;99.90;;;;;;5074248;28;20184;-64
2022/01/22 14:31:27;;;;;;;34.97;19.17;;;8.80;99.90;;;;;;5074605;28;20267;-65
2022/01/22 14:33:55;;;;;;;35.63;18.53;;;8.60;99.90;;;;;;5072785;28;20204;-66
2022/01/22 14:36:25;;;;;;;32.03;16.50;;;8.60;99.90;;;;;;5088754;28;20177;-68
2022/01/22 14:44:30;;;;;;;32.37;16.33;;;8.30;99.90;;;;;;5087633;28;20226;-64
2022/01/22 14:47:03;;;;;;;32.80;17.87;;;8.50;99.90;;;;;;5074539;28;20185;-66
2022/01/22 14:49:40;;;;;;;29.27;18.00;;;8.30;99.90;;;;;;5073495;28;20181;-64
2022/01/22 14:52:08;;;;;;;31.37;17.60;;;8.10;99.90;;;;;;5073104;28;20232;-64
2022/01/22 14:54:37;;;;;;;34.90;18.50;;;8.20;99.90;;;;;;5073018;28;20209;-64
2022/01/22 14:57:05;;;;;;;28.57;16.00;;;8.30;99.90;;;;;;5073388;28;20181;-65
2022/01/22 14:59:32;;;;;;;28.13;15.37;;;8.30;99.90;;;;;;5083559;28;20176;-64
2022/01/22 15:01:59;;;;;;;30.67;16.23;;;8.10;99.90;;;;;;5091134;28;20252;-64
2022/01/22 15:04:26;;;;;;;30.50;16.63;;;8.20;99.90;;;;;;5058341;28;20181;-64
2022/01/22 15:06:52;;;;;;;31.10;15.90;;;8.30;99.90;;;;;;5073490;28;20185;-65
2022/01/22 15:09:18;;;;;;;37.10;17.77;;;8.20;99.90;;;;;;5091909;28;20192;-65
2022/01/22 15:11:44;;;;;;;28.27;16.97;;;8.20;99.90;;;;;;5064053;28;20540;-65